Terminal Aerodrome Forecast
Issued by NWS Cleveland, OH

Home | Current Version | Previous Version | Text Only | Print | Product List | Glossary On
Versions: 1 2 3 4 5 6 7 8 9 10 11 12 13
710
FTUS41 KCLE 290525
TAFMFD
TAF
KMFD 290525Z 2906/3006 19011KT P6SM FEW120 BKN250
     FM291400 22015G25KT P6SM SCT045 BKN200
     FM300000 21012KT P6SM SCT045 BKN110=

USA.gov is the U.S. government's official web portal to all federal, state and local government web resources and services.